DAOB/TID METAR and TAF weather

Enter ICAO airport designator
Station Type Date Time Source
DAOB METAR 2020/11/25 22:00 UTC NOAA

DAOB 252200Z 15006KT 9999 FEW026 10/M06 Q1018


Station Type Date Time Source
DAOB Decoded METAR 2020/11/25 22:00 UTC NOAA

Tiaret, Algeria (DAOB) 35-15N 001-26E 1127M
Nov 25, 2020 - 05:00 PM EST / 2020.11.25 2200 UTC
Wind: from the SSE (150 degrees) at 7 MPH (6 KT):0
Visibility: greater than 7 mile(s):0
Sky conditions: mostly clear
Temperature: 50 F (10 C)
Dew Point: 21 F (-6 C)
Relative Humidity: 31%
Pressure (altimeter): 30.06 in. Hg (1018 hPa)
ob: DAOB 252200Z 15006KT 9999 FEW026 10/M06 Q1018
cycle: 22

Station Type Date Time Source
DAOB TAF 2020/11/25 18:33 UTC NOAA

TAF DAOB 251700Z 2518/2618 18010KT CAVOK PROB40
TEMPO 2609/2617 18015G30KT 3000 DRSA FEW026CB

Example: see airport list